Terminal Aerodrome Forecast
Issued by NWS

Home | Current Version | Previous Version | Text Only | Print | Product List | Glossary On
Versions: 1 2 3 4 5 6 7 8 9 10 11 12
102
FTUS44 KMAF 081120
TAFFST
TAF
KFST 081120Z 0812/0912 05009KT P6SM BKN250
     FM090000 22008KT P6SM SKC=

USA.gov is the U.S. government's official web portal to all federal, state and local government web resources and services.